createdAt,value
2023-02-14T00:01:58.646Z,3.55
2023-02-14T00:04:25.539Z,3.40
2023-02-14T00:06:52.306Z,3.58
2023-02-14T00:09:20.023Z,3.47
2023-02-14T00:11:46.723Z,3.53
2023-02-14T00:14:33.463Z,3.40
2023-02-14T00:17:01.020Z,3.25
2023-02-14T00:19:27.993Z,3.50
2023-02-14T00:21:54.711Z,3.65
2023-02-14T00:24:25.050Z,3.28
2023-02-14T00:26:52.497Z,3.45
2023-02-14T00:29:21.842Z,3.50
2023-02-14T00:31:50.461Z,3.75
2023-02-14T00:34:18.215Z,3.55
2023-02-14T00:36:45.838Z,3.47
2023-02-14T00:39:13.905Z,3.50
2023-02-14T00:41:42.083Z,3.42
2023-02-14T00:44:10.872Z,3.20
2023-02-14T00:46:40.074Z,3.38
2023-02-14T00:49:07.082Z,4.03
2023-02-14T00:51:33.868Z,3.30
2023-02-14T00:54:03.302Z,3.20
2023-02-14T00:56:31.079Z,3.25
2023-02-14T00:58:57.831Z,3.50
2023-02-14T01:01:24.626Z,3.30
2023-02-14T01:03:51.376Z,3.30
2023-02-14T01:06:18.737Z,3.15
2023-02-14T01:08:45.700Z,3.22
2023-02-14T01:11:18.719Z,3.10
2023-02-14T01:13:46.579Z,3.50
2023-02-14T01:16:15.899Z,3.22
2023-02-14T01:21:24.286Z,3.50
2023-02-14T01:23:52.990Z,3.15
2023-02-14T01:26:21.875Z,3.03
2023-02-14T01:28:48.828Z,3.38
2023-02-14T01:31:24.483Z,3.10
2023-02-14T01:33:51.757Z,3.10
2023-02-14T01:36:27.427Z,3.50
2023-02-14T01:39:02.302Z,2.97
2023-02-14T01:41:31.752Z,3.17
2023-02-14T01:44:04.600Z,3.28
2023-02-14T01:46:33.752Z,2.95
2023-02-14T01:49:13.468Z,2.88
2023-02-14T01:51:44.864Z,3.20
2023-02-14T01:54:13.089Z,3.13
2023-02-14T01:56:43.080Z,3.22
2023-02-14T01:59:16.532Z,2.97
2023-02-14T02:01:43.781Z,3.47
2023-02-14T02:04:14.388Z,3.20
2023-02-14T02:06:47.998Z,3.03
2023-02-14T02:09:25.611Z,3.20
2023-02-14T02:11:52.886Z,3.13
2023-02-14T02:14:21.738Z,3.10
2023-02-14T02:17:06.998Z,3.00
2023-02-14T02:19:33.645Z,3.25
2023-02-14T02:22:29.665Z,3.08
2023-02-14T02:25:32.683Z,3.15
2023-02-14T02:28:22.921Z,2.97
2023-02-14T02:31:11.362Z,3.10
2023-02-14T02:33:59.864Z,3.17
2023-02-14T02:36:51.827Z,3.10
2023-02-14T02:39:50.053Z,3.13
2023-02-14T02:42:31.958Z,3.10
2023-02-14T02:45:06.664Z,3.10
2023-02-14T02:47:45.142Z,3.10
2023-02-14T02:50:43.856Z,3.00
2023-02-14T02:53:20.388Z,3.05
2023-02-14T02:56:17.184Z,3.10
2023-02-14T02:59:18.216Z,2.97
2023-02-14T03:02:11.190Z,2.83
2023-02-14T03:04:54.553Z,3.10
2023-02-14T03:07:34.963Z,3.22
2023-02-14T03:10:28.371Z,2.97
2023-02-14T03:13:37.368Z,3.00
2023-02-14T03:16:08.019Z,2.97
2023-02-14T03:18:58.466Z,2.83
2023-02-14T03:21:33.503Z,3.00
2023-02-14T03:24:11.766Z,3.00
2023-02-14T03:26:43.980Z,3.00
2023-02-14T03:29:42.512Z,2.97
2023-02-14T03:32:39.136Z,3.17
2023-02-14T03:35:30.857Z,3.00
2023-02-14T03:38:27.141Z,2.90
2023-02-14T03:41:07.364Z,2.92
2023-02-14T03:43:44.642Z,3.08
2023-02-14T03:46:22.349Z,2.90
2023-02-14T03:48:51.132Z,2.90
2023-02-14T03:51:18.842Z,2.90
2023-02-14T03:53:48.394Z,3.00
2023-02-14T03:56:22.243Z,2.83
2023-02-14T03:58:51.624Z,2.83
2023-02-14T04:03:50.880Z,2.90
2023-02-14T04:06:18.990Z,3.00
2023-02-14T04:08:46.089Z,3.05
2023-02-14T04:11:12.817Z,3.00
2023-02-14T04:13:41.056Z,3.08
2023-02-14T04:16:07.941Z,3.05
2023-02-14T04:18:53.436Z,2.95
2023-02-14T04:21:20.835Z,3.00
2023-02-14T04:23:47.595Z,2.83
2023-02-14T04:26:14.447Z,2.97
2023-02-14T04:28:41.176Z,3.15
2023-02-14T04:31:10.646Z,2.90
2023-02-14T04:33:37.494Z,2.90
2023-02-14T04:36:04.454Z,2.78
2023-02-14T04:38:32.676Z,2.85
2023-02-14T04:40:59.682Z,3.15
2023-02-14T04:43:26.550Z,2.90
2023-02-14T04:45:53.303Z,2.85
2023-02-14T04:48:20.006Z,2.75
2023-02-14T04:50:52.472Z,3.20
2023-02-14T04:53:19.428Z,2.83
2023-02-14T04:55:48.424Z,2.83
2023-02-14T04:58:15.108Z,3.00
2023-02-14T05:00:41.914Z,2.90
2023-02-14T05:03:08.672Z,2.75
2023-02-14T05:05:35.359Z,3.08
2023-02-14T05:08:02.115Z,3.20
2023-02-14T05:10:29.164Z,3.10
2023-02-14T05:12:55.876Z,2.80
2023-02-14T05:15:22.606Z,3.00
2023-02-14T05:17:49.303Z,2.90
2023-02-14T05:20:16.032Z,3.00
2023-02-14T05:22:42.783Z,3.00
2023-02-14T05:25:09.524Z,3.00
2023-02-14T05:27:36.234Z,3.08
2023-02-14T05:30:04.133Z,3.10
2023-02-14T05:32:30.860Z,2.90
2023-02-14T05:34:58.846Z,3.00
2023-02-14T05:37:26.400Z,2.80
2023-02-14T05:39:53.085Z,2.83
2023-02-14T05:42:19.787Z,2.90
2023-02-14T05:44:46.571Z,2.90
2023-02-14T05:47:13.352Z,2.80
2023-02-14T05:49:40.084Z,3.15
2023-02-14T05:52:07.654Z,3.10
2023-02-14T05:54:34.482Z,2.95
2023-02-14T05:57:01.192Z,3.00
2023-02-14T05:59:27.990Z,2.95
2023-02-14T06:01:54.692Z,2.90
2023-02-14T06:04:21.453Z,3.00
2023-02-14T06:06:48.265Z,3.00
2023-02-14T06:09:15.073Z,2.90
2023-02-14T06:11:41.801Z,2.88
2023-02-14T06:14:08.569Z,2.97
2023-02-14T06:16:35.412Z,3.00
2023-02-14T06:19:02.231Z,2.90
2023-02-14T06:21:29.056Z,3.13
2023-02-14T06:23:55.796Z,2.78
2023-02-14T06:26:22.569Z,2.95
2023-02-14T06:28:56.725Z,2.95
2023-02-14T06:31:24.792Z,3.10
2023-02-14T06:33:52.739Z,3.17
2023-02-14T06:36:19.892Z,3.00
2023-02-14T06:38:48.023Z,2.90
2023-02-14T06:41:16.989Z,2.85
2023-02-14T06:43:45.071Z,2.95
2023-02-14T06:46:12.115Z,3.17
2023-02-14T06:48:38.831Z,3.30
2023-02-14T06:51:05.677Z,3.05
2023-02-14T06:53:32.399Z,2.95
2023-02-14T06:55:59.192Z,3.22
2023-02-14T06:58:25.991Z,3.20
2023-02-14T07:00:59.894Z,2.95
2023-02-14T07:03:27.291Z,3.00
2023-02-14T07:05:54.074Z,3.05
2023-02-14T07:08:20.906Z,3.03
2023-02-14T07:10:47.646Z,3.00
2023-02-14T07:13:14.336Z,3.05
2023-02-14T07:15:41.053Z,3.13
2023-02-14T07:18:10.538Z,3.20
2023-02-14T07:20:37.286Z,3.10
2023-02-14T07:23:04.009Z,2.88
2023-02-14T07:25:30.900Z,4.05
2023-02-14T07:27:58.337Z,4.63
2023-02-14T07:30:25.376Z,5.43
2023-02-14T07:32:52.208Z,5.15
2023-02-14T07:35:19.827Z,5.60
2023-02-14T07:37:46.507Z,5.07
2023-02-14T07:40:15.095Z,5.38
2023-02-14T07:42:42.659Z,5.70
2023-02-14T07:45:21.225Z,6.32
2023-02-14T07:47:54.029Z,6.15
2023-02-14T07:50:22.381Z,5.80
2023-02-14T07:52:49.488Z,5.53
2023-02-14T07:55:16.428Z,6.38
2023-02-14T07:57:43.166Z,6.72
2023-02-14T08:00:10.263Z,6.40
2023-02-14T08:02:39.582Z,7.03
2023-02-14T08:05:06.709Z,6.82
2023-02-14T08:07:33.427Z,6.05
2023-02-14T08:10:00.128Z,6.07
2023-02-14T08:12:46.044Z,5.30
2023-02-14T08:15:31.549Z,5.00
2023-02-14T08:17:58.358Z,5.28
2023-02-14T08:20:25.352Z,4.70
2023-02-14T08:22:52.026Z,4.75
2023-02-14T08:25:18.832Z,4.45
2023-02-14T08:27:45.617Z,4.63
2023-02-14T08:30:12.747Z,4.38
2023-02-14T08:32:40.636Z,4.20
2023-02-14T08:35:08.055Z,3.75
2023-02-14T08:37:34.860Z,4.22
2023-02-14T08:40:01.626Z,3.67
2023-02-14T08:42:28.393Z,4.07
2023-02-14T08:44:55.369Z,4.00
2023-02-14T08:47:22.146Z,3.80
2023-02-14T08:49:48.869Z,3.90
2023-02-14T08:52:15.643Z,3.58
2023-02-14T08:54:42.359Z,3.97
2023-02-14T08:57:09.115Z,3.85
2023-02-14T08:59:35.837Z,3.80
2023-02-14T09:02:02.594Z,3.55
2023-02-14T09:04:29.427Z,4.70
2023-02-14T09:06:56.212Z,5.72
2023-02-14T09:09:22.964Z,6.25
2023-02-14T09:11:49.661Z,7.50
2023-02-14T09:14:16.399Z,7.75
2023-02-14T09:16:43.279Z,7.53
2023-02-14T09:19:10.077Z,7.22
2023-02-14T09:21:36.947Z,6.70
2023-02-14T09:24:04.587Z,6.43
2023-02-14T09:26:31.270Z,6.82
2023-02-14T09:28:58.106Z,6.68
2023-02-14T09:31:25.669Z,6.10
2023-02-14T09:33:52.481Z,6.53
2023-02-14T09:36:19.167Z,5.97
2023-02-14T09:38:46.223Z,5.70
2023-02-14T09:41:28.502Z,5.47
2023-02-14T09:44:06.526Z,5.20
2023-02-14T09:46:59.432Z,5.78
2023-02-14T09:49:32.927Z,5.25
2023-02-14T09:52:02.618Z,5.00
2023-02-14T09:54:30.130Z,5.30
2023-02-14T09:57:11.681Z,5.30
2023-02-14T09:59:49.911Z,5.25
2023-02-14T10:02:22.933Z,5.40
2023-02-14T10:05:13.258Z,5.47
2023-02-14T10:08:06.519Z,4.90
2023-02-14T10:10:42.128Z,5.40
2023-02-14T10:13:39.863Z,4.60
2023-02-14T10:16:26.672Z,4.93
2023-02-14T10:19:03.785Z,5.20
2023-02-14T10:21:41.290Z,5.13
2023-02-14T10:24:26.051Z,4.80
2023-02-14T10:26:57.729Z,4.88
2023-02-14T10:29:24.620Z,4.70
2023-02-14T10:31:58.021Z,4.97
2023-02-14T10:34:47.898Z,4.90
2023-02-14T10:37:54.133Z,5.15
2023-02-14T10:40:49.480Z,5.20
2023-02-14T10:43:48.108Z,5.03
2023-02-14T10:46:30.790Z,4.72
2023-02-14T10:49:25.299Z,4.78
2023-02-14T10:52:09.757Z,4.80
2023-02-14T10:54:43.647Z,4.30
2023-02-14T10:57:16.296Z,4.68
2023-02-14T11:00:07.019Z,4.70
2023-02-14T11:02:41.949Z,4.90
2023-02-14T11:05:23.356Z,4.65
2023-02-14T11:07:50.601Z,4.93
2023-02-14T11:10:18.181Z,4.10
2023-02-14T11:12:44.889Z,4.13
2023-02-14T11:15:14.359Z,4.32
2023-02-14T11:17:42.187Z,4.25
2023-02-14T11:20:32.250Z,4.40
2023-02-14T11:22:59.005Z,4.45
2023-02-14T11:25:30.152Z,4.20
2023-02-14T11:28:05.266Z,4.28
2023-02-14T11:30:37.062Z,3.75
2023-02-14T11:33:04.706Z,10.20
2023-02-14T11:35:35.562Z,12.15
2023-02-14T11:38:04.381Z,9.98
2023-02-14T11:40:36.757Z,9.07
2023-02-14T11:43:15.272Z,8.30
2023-02-14T11:45:44.805Z,7.90
2023-02-14T11:48:39.601Z,8.45
2023-02-14T11:51:13.942Z,8.40
2023-02-14T11:53:47.614Z,7.68
2023-02-14T11:56:19.167Z,8.35
2023-02-14T11:58:54.252Z,7.60
2023-02-14T12:01:31.191Z,7.68
2023-02-14T12:04:01.227Z,7.68
2023-02-14T12:06:30.881Z,8.20
2023-02-14T12:09:23.995Z,7.63
2023-02-14T12:12:02.976Z,7.70
2023-02-14T12:14:32.497Z,8.30
2023-02-14T12:17:13.243Z,7.72
2023-02-14T12:19:42.811Z,7.70
2023-02-14T12:22:12.022Z,7.47
2023-02-14T12:27:22.505Z,7.03
2023-02-14T12:30:07.786Z,6.93
2023-02-14T12:32:35.409Z,6.93
2023-02-14T12:35:12.933Z,5.70
2023-02-14T12:38:02.666Z,5.95
2023-02-14T12:40:55.453Z,6.10
2023-02-14T12:43:47.914Z,6.03
2023-02-14T12:46:31.833Z,5.63
2023-02-14T12:49:40.407Z,6.13
2023-02-14T12:52:25.216Z,6.03
2023-02-14T12:55:14.012Z,5.85
2023-02-14T12:58:07.124Z,5.50
2023-02-14T13:00:48.085Z,5.93
2023-02-14T13:03:33.677Z,5.72
2023-02-14T13:06:18.231Z,5.60
2023-02-14T13:09:10.816Z,6.10
2023-02-14T13:12:02.476Z,6.20
2023-02-14T13:14:44.244Z,6.15
2023-02-14T13:17:28.417Z,5.90
2023-02-14T13:20:47.211Z,5.72
2023-02-14T13:23:35.731Z,6.57
2023-02-14T13:26:12.235Z,5.93
2023-02-14T13:28:44.322Z,5.82
2023-02-14T13:31:11.311Z,5.78
2023-02-14T13:33:43.679Z,5.50
2023-02-14T13:36:12.738Z,6.35
2023-02-14T13:38:50.863Z,5.60
2023-02-14T13:41:18.847Z,5.60
2023-02-14T13:43:58.757Z,5.18
2023-02-14T13:46:35.153Z,5.40
2023-02-14T13:49:20.306Z,4.95
2023-02-14T13:51:55.740Z,4.80
2023-02-14T13:54:35.733Z,4.88
2023-02-14T13:57:22.541Z,4.47
2023-02-14T14:00:18.088Z,4.85
2023-02-14T14:02:47.180Z,4.50
2023-02-14T14:05:42.727Z,6.70
2023-02-14T14:08:22.224Z,5.35
2023-02-14T14:10:50.413Z,5.57
2023-02-14T14:13:41.987Z,4.88
2023-02-14T14:16:31.413Z,5.03
2023-02-14T14:19:16.487Z,5.10
2023-02-14T14:21:45.173Z,4.75
2023-02-14T14:24:46.898Z,4.93
2023-02-14T14:27:16.353Z,4.80
2023-02-14T14:29:55.520Z,4.60
2023-02-14T14:32:33.910Z,4.97
2023-02-14T14:35:06.533Z,4.40
2023-02-14T14:37:35.580Z,4.70
2023-02-14T14:40:08.091Z,4.38
2023-02-14T14:42:37.614Z,4.18
2023-02-14T14:45:08.406Z,4.32
2023-02-14T14:47:40.802Z,4.05
2023-02-14T14:50:14.367Z,4.10
2023-02-14T14:52:48.032Z,4.22
2023-02-14T14:55:24.754Z,4.18
2023-02-14T14:57:53.911Z,4.15
2023-02-14T15:00:28.644Z,4.05
2023-02-14T15:03:17.292Z,4.22
2023-02-14T15:05:47.198Z,4.07
2023-02-14T15:08:33.291Z,4.20
2023-02-14T15:11:13.254Z,4.13
2023-02-14T15:13:51.216Z,3.80
2023-02-14T15:16:27.484Z,3.80
2023-02-14T15:19:31.493Z,4.07
2023-02-14T15:21:58.267Z,3.95
2023-02-14T15:24:26.787Z,3.80
2023-02-14T15:26:53.939Z,3.58
2023-02-14T15:29:32.385Z,3.97
2023-02-14T15:32:03.013Z,4.53
2023-02-14T15:34:36.110Z,4.40
2023-02-14T15:37:06.254Z,4.50
2023-02-14T15:39:36.993Z,4.30
2023-02-14T15:42:05.871Z,3.90
2023-02-14T15:44:32.875Z,4.22
2023-02-14T15:47:02.958Z,3.70
2023-02-14T15:49:33.654Z,3.70
2023-02-14T15:52:04.904Z,3.95
2023-02-14T15:54:37.510Z,3.70
2023-02-14T15:57:05.835Z,3.42
2023-02-14T15:59:34.614Z,3.70
2023-02-14T16:02:05.772Z,3.60
2023-02-14T16:04:34.255Z,3.60
2023-02-14T16:07:26.706Z,3.53
2023-02-14T16:10:28.491Z,3.40
2023-02-14T16:13:16.249Z,3.40
2023-02-14T16:16:03.388Z,3.60
2023-02-14T16:18:34.856Z,3.80
2023-02-14T16:21:33.021Z,3.78
2023-02-14T16:24:11.718Z,3.57
2023-02-14T16:26:43.461Z,3.60
2023-02-14T16:29:13.046Z,3.55
2023-02-14T16:32:06.155Z,3.83
2023-02-14T16:34:30.541Z,4.53
2023-02-14T16:36:57.239Z,4.20
2023-02-14T16:39:24.992Z,4.40
2023-02-14T16:41:54.551Z,4.22
2023-02-14T16:44:22.471Z,4.38
2023-02-14T16:46:49.207Z,4.65
2023-02-14T16:49:16.112Z,4.65
2023-02-14T16:51:44.804Z,5.15
2023-02-14T16:54:18.428Z,4.93
2023-02-14T16:56:51.347Z,4.30
2023-02-14T16:59:18.081Z,4.20
2023-02-14T17:01:45.027Z,4.60
2023-02-14T17:04:11.875Z,4.22
2023-02-14T17:06:40.606Z,3.92
2023-02-14T17:09:10.120Z,4.22
2023-02-14T17:11:39.887Z,4.22
2023-02-14T17:14:06.984Z,4.10
2023-02-14T17:16:34.071Z,4.20
2023-02-14T17:19:02.465Z,4.28
2023-02-14T17:21:29.386Z,3.97
2023-02-14T17:23:57.182Z,4.20
2023-02-14T17:26:24.134Z,3.97
2023-02-14T17:28:50.857Z,4.20
2023-02-14T17:31:18.052Z,4.35
2023-02-14T17:33:44.901Z,3.65
2023-02-14T17:36:13.246Z,4.13
2023-02-14T17:38:40.714Z,4.17
2023-02-14T17:41:16.425Z,3.90
2023-02-14T17:43:43.356Z,3.90
2023-02-14T17:46:10.485Z,3.53
2023-02-14T17:48:37.204Z,3.70
2023-02-14T17:51:06.448Z,4.05
2023-02-14T17:53:34.083Z,3.70
2023-02-14T17:56:09.510Z,4.13
2023-02-14T17:58:36.601Z,3.53
2023-02-14T18:01:07.568Z,3.65
2023-02-14T18:03:34.740Z,3.80
2023-02-14T18:06:02.392Z,3.92
2023-02-14T18:08:30.693Z,3.30
2023-02-14T18:10:57.619Z,3.83
2023-02-14T18:13:25.135Z,3.95
2023-02-14T18:15:53.153Z,3.80
2023-02-14T18:18:20.071Z,3.67
2023-02-14T18:20:57.284Z,3.75
2023-02-14T18:23:24.192Z,3.38
2023-02-14T18:25:55.443Z,4.70
2023-02-14T18:28:23.738Z,4.05
2023-02-14T18:30:51.208Z,4.18
2023-02-14T18:33:17.954Z,3.90
2023-02-14T18:35:45.331Z,3.78
2023-02-14T18:38:12.751Z,3.78
2023-02-14T18:40:41.145Z,3.65
2023-02-14T18:43:07.867Z,3.53
2023-02-14T18:45:38.471Z,3.78
2023-02-14T18:48:05.606Z,3.60
2023-02-14T18:50:33.497Z,3.80
2023-02-14T18:53:00.194Z,3.80
2023-02-14T18:55:27.351Z,3.55
2023-02-14T18:57:54.096Z,3.80
2023-02-14T19:00:21.836Z,3.47
2023-02-14T19:02:48.714Z,3.70
2023-02-14T19:05:15.426Z,3.67
2023-02-14T19:07:42.153Z,4.00
2023-02-14T19:10:09.718Z,3.50
2023-02-14T19:12:36.478Z,4.00
2023-02-14T19:15:03.493Z,3.75
2023-02-14T19:17:30.315Z,3.90
2023-02-14T19:19:57.246Z,3.80
2023-02-14T19:22:24.004Z,3.50
2023-02-14T19:24:53.031Z,3.70
2023-02-14T19:27:21.503Z,3.90
2023-02-14T19:29:48.322Z,3.97
2023-02-14T19:32:15.232Z,3.78
2023-02-14T19:34:41.936Z,3.40
2023-02-14T19:37:08.642Z,4.35
2023-02-14T19:39:35.396Z,4.15
2023-02-14T19:42:03.952Z,3.92
2023-02-14T19:44:32.376Z,3.95
2023-02-14T19:47:04.103Z,3.93
2023-02-14T19:49:34.602Z,3.60
2023-02-14T19:52:01.832Z,3.78
2023-02-14T19:54:29.982Z,3.75
2023-02-14T19:56:57.354Z,3.55
2023-02-14T19:59:24.113Z,3.72
2023-02-14T20:01:53.091Z,4.10
2023-02-14T20:04:22.393Z,4.10
2023-02-14T20:06:49.736Z,3.65
2023-02-14T20:09:16.765Z,3.90
2023-02-14T20:11:51.368Z,3.80
2023-02-14T20:14:22.826Z,3.88
2023-02-14T20:16:49.699Z,4.00
2023-02-14T20:19:18.634Z,3.78
2023-02-14T20:21:46.883Z,3.97
2023-02-14T20:24:17.500Z,4.10
2023-02-14T20:26:44.348Z,3.95
2023-02-14T20:29:11.233Z,4.22
2023-02-14T20:31:42.601Z,4.35
2023-02-14T20:34:09.671Z,4.60
2023-02-14T20:36:37.328Z,4.50
2023-02-14T20:39:05.680Z,5.00
2023-02-14T20:41:35.914Z,4.07
2023-02-14T20:44:05.543Z,4.70
2023-02-14T20:46:33.092Z,4.50
2023-02-14T20:48:59.811Z,4.70
2023-02-14T20:51:26.870Z,4.47
2023-02-14T20:53:53.793Z,4.82
2023-02-14T20:56:21.507Z,4.63
2023-02-14T20:58:48.289Z,4.80
2023-02-14T21:01:17.924Z,4.85
2023-02-14T21:03:46.793Z,4.93
2023-02-14T21:06:14.728Z,5.10
2023-02-14T21:08:44.785Z,4.80
2023-02-14T21:11:13.735Z,5.00
2023-02-14T21:13:40.564Z,4.90
2023-02-14T21:16:14.842Z,5.10
2023-02-14T21:18:42.843Z,4.80
2023-02-14T21:21:15.274Z,5.63
2023-02-14T21:23:42.250Z,4.50
2023-02-14T21:26:09.106Z,5.05
2023-02-14T21:28:35.874Z,4.85
2023-02-14T21:31:08.096Z,5.03
2023-02-14T21:33:35.621Z,5.25
2023-02-14T21:36:10.274Z,4.70
2023-02-14T21:38:37.328Z,4.82
2023-02-14T21:41:10.132Z,4.80
2023-02-14T21:43:39.136Z,5.00
2023-02-14T21:46:07.368Z,5.13
2023-02-14T21:48:52.910Z,4.90
2023-02-14T21:51:19.867Z,4.70
2023-02-14T21:53:46.805Z,4.80
2023-02-14T21:56:17.971Z,4.72
2023-02-14T21:58:44.837Z,4.97
2023-02-14T22:01:20.102Z,4.75
2023-02-14T22:03:46.873Z,4.50
2023-02-14T22:06:14.170Z,4.93
2023-02-14T22:08:41.096Z,4.35
2023-02-14T22:11:10.767Z,4.88
2023-02-14T22:13:37.556Z,4.88
2023-02-14T22:16:07.016Z,4.68
2023-02-14T22:18:34.194Z,4.57
2023-02-14T22:21:06.830Z,4.63
2023-02-14T22:23:34.216Z,4.57
2023-02-14T22:26:24.403Z,4.47
2023-02-14T22:28:53.822Z,4.47
2023-02-14T22:31:20.637Z,4.63
2023-02-14T22:33:48.530Z,4.78
2023-02-14T22:36:15.896Z,4.55
2023-02-14T22:38:43.985Z,4.60
2023-02-14T22:41:12.995Z,4.03
2023-02-14T22:43:40.635Z,4.60
2023-02-14T22:46:17.085Z,4.40
2023-02-14T22:48:44.345Z,4.30
2023-02-14T22:51:29.328Z,4.50
2023-02-14T22:54:01.069Z,4.35
2023-02-14T22:56:31.055Z,4.35
2023-02-14T22:59:00.165Z,4.03
2023-02-14T23:01:27.655Z,4.50
2023-02-14T23:03:59.078Z,4.38
2023-02-14T23:06:27.847Z,4.25
2023-02-14T23:08:55.155Z,4.25
2023-02-14T23:11:41.108Z,4.57
2023-02-14T23:14:27.047Z,4.45
2023-02-14T23:17:05.686Z,4.40
2023-02-14T23:19:52.799Z,4.05
2023-02-14T23:22:29.508Z,4.25
2023-02-14T23:24:58.375Z,4.03
2023-02-14T23:27:34.184Z,4.68
2023-02-14T23:30:01.091Z,4.43
2023-02-14T23:32:28.250Z,4.57
2023-02-14T23:34:55.115Z,4.53
2023-02-14T23:37:21.835Z,4.30
2023-02-14T23:39:48.537Z,7.05
2023-02-14T23:42:16.042Z,6.07
2023-02-14T23:44:44.020Z,5.20
2023-02-14T23:47:11.803Z,4.82
2023-02-14T23:49:39.954Z,5.20
2023-02-14T23:52:08.509Z,4.47
2023-02-14T23:54:36.052Z,5.00
2023-02-14T23:57:03.549Z,4.75
2023-02-14T23:59:30.271Z,4.82
